ADDS METAR Data INFO
IDs: Format: Raw Decoded Include TAF

Data at: 0023 UTC 23 Oct 2017

KLAM 230015Z AUTO 21005KT 10SM CLR 14/M08 A3038 RMK AO2 T01401076
KLAM 222355Z AUTO 00000KT 10SM CLR 15/M08 A3038 RMK AO2 T01461080 10152 20095
KLAM 222335Z AUTO 00000KT 10SM CLR 15/M08 A3038 RMK AO2 T01501084
KLAM 222315Z AUTO 00000KT 10SM CLR 15/M09 A3037 RMK AO2 T01501086
KLAM 222255Z AUTO 17003KT 10SM CLR 15/M09 A3037 RMK AO2 T01491090
KLAM 222235Z AUTO 15005KT 10SM CLR 15/M09 A3037 RMK AO2 T01511087
KLAM 222215Z AUTO 00000KT 10SM CLR 15/M09 A3037 RMK AO2 T01481086
KLAM 222155Z AUTO 09005KT 10SM CLR 15/M08 A3037 RMK AO2 T01521085
KLAM 222135Z AUTO 00000KT 10SM CLR 15/M09 A3037 RMK AO2 T01461088
KLAM 222115Z AUTO 20003KT 10SM CLR 14/M10 A3037 RMK AO2 T01431096
KLAM 222055Z AUTO 14006KT 10SM CLR 14/M10 A3037 RMK AO2 T01381096
KLAM 222035Z AUTO 09003KT 10SM CLR 14/M10 A3039 RMK AO2 T01351098
KLAM 222015Z AUTO 13004KT 10SM CLR 13/M10 A3040 RMK AO2 T01321104
KLAM 221955Z AUTO 07005KT 10SM CLR 13/M10 A3041 RMK AO2 T01271104
KLAM 221935Z AUTO 15004KT 10SM CLR 13/M10 A3041 RMK AO2 T01261105
KLAM 221915Z AUTO 00000KT 10SM CLR 12/M11 A3042 RMK AO2 T01211110
KLAM 221855Z AUTO 08004KT 10SM CLR 12/M11 A3042 RMK AO2 T01191108
KLAM 221835Z AUTO 00000KT 10SM CLR 11/M12 A3042 RMK AO2 T01101117
KLAM 221815Z AUTO 04003KT 10SM CLR 10/M12 A3043 RMK AO2 T00981123
KLAM 221755Z AUTO 07003KT 10SM CLR 09/M12 A3044 RMK AO2 T00911125 10091 20014
KLAM 221735Z AUTO 00000KT 10SM CLR 09/M13 A3045 RMK AO2 T00881128
KLAM 221715Z AUTO 11005KT 10SM CLR 08/M13 A3045 RMK AO2 T00831126
KLAM 221655Z AUTO 04004KT 10SM CLR 08/M13 A3045 RMK AO2 T00791131
KLAM 221635Z AUTO 07004KT 10SM CLR 08/M13 A3044 RMK AO2 T00761132
KLAM 221615Z AUTO 05004KT 10SM SCT110 07/M13 A3043 RMK AO2 T00731132
KLAM 221555Z AUTO 03004KT 10SM SCT110 06/M13 A3043 RMK AO2 T00631132
KLAM 221535Z AUTO 02006KT 10SM CLR 05/M13 A3043 RMK AO2 T00541134
KLAM 221515Z AUTO 04003KT 10SM CLR 05/M14 A3043 RMK AO2 T00451138
KLAM 221455Z AUTO 00000KT 10SM CLR 04/M14 A3042 RMK AO2 T00381136
KLAM 221435Z AUTO 00000KT 10SM CLR 03/M14 A3041 RMK AO2 T00261136
KLAM 221415Z AUTO 00000KT 10SM SCT100 SCT120 03/M14 A3039 RMK AO2 T00271142
KLAM 221355Z AUTO 00000KT 10SM SCT090 SCT110 02/M15 A3039 RMK AO2 T00211146
KLAM 221335Z AUTO 00000KT 10SM SCT090 SCT110 02/M14 A3039 RMK AO2 T00151141
KLAM 221315Z AUTO 36003KT 10SM SCT090 SCT120 03/M16 A3038 RMK AO2 T00341156
KLAM 221255Z AUTO 00000KT 10SM SCT090 04/M16 A3038 RMK AO2 T00421162
KLAM 221235Z AUTO 00000KT 10SM SCT090 04/M16 A3039 RMK AO2 T00411162
KLAM 221215Z AUTO 29005KT 10SM SCT090 04/M16 A3039 RMK AO2 T00361159
KLAM 221155Z AUTO 28006KT 10SM SCT090 03/M15 A3039 RMK AO2 T00311154 10046 20014
KLAM 221135Z AUTO 29005KT 10SM SCT090 03/M15 A3039 RMK AO2 T00301155
KLAM 221115Z AUTO 27010KT 10SM SCT090 02/M14 A3039 RMK AO2 T00211145
KLAM 221055Z AUTO 24006KT 10SM SCT090 02/M15 A3038 RMK AO2 T00201150
KLAM 221035Z AUTO 21005KT 10SM SCT090 02/M15 A3037 RMK AO2 T00181150
KLAM 221015Z AUTO 23004KT 10SM SCT090 02/M15 A3035 RMK AO2 T00201151
KLAM 220955Z AUTO 22003KT 10SM SCT090 02/M15 A3034 RMK AO2 T00201152
KLAM 220935Z AUTO 19003KT 10SM SCT090 02/M15 A3033 RMK AO2 T00181152
KLAM 220915Z AUTO 00000KT 10SM SCT090 03/M16 A3034 RMK AO2 T00281156
KLAM 220855Z AUTO 04004KT 10SM SCT090 03/M16 A3033 RMK AO2 T00301158
KLAM 220835Z AUTO 03004KT 10SM SCT090 03/M16 A3033 RMK AO2 T00301157
KLAM 220815Z AUTO 00000KT 10SM SCT090 SCT120 04/M16 A3033 RMK AO2 T00361160
KLAM 220755Z AUTO 00000KT 10SM SCT090 SCT120 04/M16 A3033 RMK AO2 T00361160
KLAM 220735Z AUTO 00000KT 10SM SCT090 03/M16 A3033 RMK AO2 T00331156
KLAM 220715Z AUTO 12004KT 10SM SCT100 04/M16 A3033 RMK AO2 T00421161
KLAM 220655Z AUTO 00000KT 10SM SCT100 04/M16 A3033 RMK AO2 T00411164
KLAM 220635Z AUTO 00000KT 10SM SCT100 04/M16 A3032 RMK AO2 T00411164
KLAM 220615Z AUTO 00000KT 10SM SCT100 04/M16 A3032 RMK AO2 T00441163
KLAM 220555Z AUTO 00000KT 10SM BKN100 05/M16 A3031 RMK AO2 T00451165 10112 20040 401410040
KLAM 220535Z AUTO 00000KT 10SM BKN100 04/M16 A3031 RMK AO2 T00441161
KLAM 220515Z AUTO 17003KT 10SM BKN100 05/M16 A3031 RMK AO2 T00451156
KLAM 220455Z AUTO 13003KT 10SM BKN100 06/M16 A3030 RMK AO2 T00551158
KLAM 220435Z AUTO 12005KT 10SM SCT100 06/M16 A3030 RMK AO2 T00601158
KLAM 220415Z AUTO 16004KT 10SM SCT100 06/M16 A3029 RMK AO2 T00621162
KLAM 220355Z AUTO 15004KT 10SM SCT100 06/M16 A3028 RMK AO2 T00621163
KLAM 220335Z AUTO 00000KT 10SM SCT110 08/M18 A3028 RMK AO2 T00771178
KLAM 220315Z AUTO 17004KT 10SM SCT100 08/M17 A3027 RMK AO2 T00761169
KLAM 220255Z AUTO 00000KT 10SM SCT100 07/M17 A3026 RMK AO2 T00741167
KLAM 220235Z AUTO 01006KT 10SM SCT110 08/M19 A3025 RMK AO2 T00801190
KLAM 220215Z AUTO 01004KT 10SM SCT110 08/M18 A3025 RMK AO2 T00811177
KLAM 220155Z AUTO 00000KT 10SM CLR 08/M16 A3024 RMK AO2 T00791159
KLAM 220135Z AUTO 27008G15KT 10SM SCT110 08/M16 A3023 RMK AO2 T00841165
KLAM 220115Z AUTO 28009KT 10SM SCT110 08/M16 A3021 RMK AO2 T00841156
KLAM 220055Z AUTO 28008KT 10SM SCT110 09/M16 A3020 RMK AO2 T00901157
KLAM 220035Z AUTO 26011KT 10SM CLR 10/M16 A3019 RMK AO2 T00961160
KLAM 220015Z AUTO 26007KT 10SM CLR 10/M16 A3019 RMK AO2 T01041163
KLAM 212355Z AUTO 28006KT 10SM CLR 11/M17 A3017 RMK AO2 T01131168 10137 20113
KLAM 212335Z AUTO 24006KT 10SM SCT120 12/M17 A3015 RMK AO2 T01181169
KLAM 212315Z AUTO 25012G16KT 10SM CLR 13/M17 A3014 RMK AO2 T01251167
KLAM 212255Z AUTO 25011G16KT 10SM CLR 13/M17 A3014 RMK AO2 T01261166
KLAM 212235Z AUTO 28011G18KT 10SM CLR 13/M17 A3012 RMK AO2 T01261168
KLAM 212215Z AUTO 27010G21KT 10SM CLR 13/M15 A3011 RMK AO2 T01321153
KLAM 212155Z AUTO 28013G22KT 10SM CLR 14/M16 A3010 RMK AO2 T01351156
KLAM 212135Z AUTO 28014G20KT 10SM CLR 13/M15 A3009 RMK AO2 T01261150
KLAM 212115Z AUTO 27013G22KT 10SM CLR 13/M15 A3009 RMK AO2 T01301146
KLAM 212055Z AUTO 29016G28KT 10SM CLR 13/M15 A3009 RMK AO2 T01291153
KLAM 212035Z AUTO 28009G16KT 250V320 10SM CLR 13/M11 A3009 RMK AO2 T01321115
KLAM 212020Z AUTO 27012G22KT 10SM CLR 14/M11 A3008 RMK AO2 T01371109
KLAM 211955Z AUTO 23013G19KT 200V260 10SM CLR 13/M09 A3007 RMK AO2 T01311095
KLAM 211935Z AUTO 26008KT 230V300 10SM CLR 13/M09 A3007 RMK AO2 T01311091
KLAM 211915Z AUTO 27014G18KT 10SM CLR 13/M08 A3008 RMK AO2 T01291081
KLAM 211855Z AUTO 29010G20KT 260V320 10SM CLR 13/M08 A3008 RMK AO2 T01311082
KLAM 211835Z AUTO 26013G22KT 10SM SCT075 13/M07 A3008 RMK AO2 T01311073
KLAM 211815Z AUTO 28012G20KT 10SM SCT075 13/M06 A3008 RMK AO2 T01321063
KLAM 211755Z AUTO 26014G20KT 10SM BKN075 BKN085 13/M05 A3008 RMK AO2 T01261055 10126 20087
KLAM 211735Z AUTO 30006G22KT 10SM SCT075 BKN085 BKN120 12/M04 A3007 RMK AO2 T01211043
KLAM 211715Z AUTO 25015G22KT 10SM SCT065 SCT080 SCT090 12/M06 A3007 RMK AO2 T01181056
KLAM 211655Z AUTO 24009G15KT 10SM SCT065 SCT075 12/M04 A3007 RMK AO2 T01151037
KLAM 211635Z AUTO 24007KT 10SM BKN075 OVC080 11/M03 A3007 RMK AO2 T01101027
KLAM 211615Z AUTO 30007KT 10SM BKN060 OVC075 11/M03 A3007 RMK AO2 T01101029
KLAM 211555Z AUTO 00000KT 10SM OVC060 11/M03 A3007 RMK AO2 T01081027
KLAM 211535Z AUTO 14004KT 10SM BKN060 BKN070 11/M02 A3006 RMK AO2 T01131023
KLAM 211515Z AUTO 14003KT 10SM BKN050 11/M02 A3005 RMK AO2 T01101018
KLAM 211455Z AUTO 05003KT 10SM OVC050 11/M02 A3004 RMK AO2 T01061016
KLAM 211435Z AUTO 00000KT 10SM BKN050 10/M02 A3003 RMK AO2 T00991019
KLAM 211415Z AUTO 02003KT 10SM SCT050 09/M02 A3002 RMK AO2 T00901016
KLAM 211355Z AUTO 30005KT 10SM SCT050 SCT080 09/M02 A3001 RMK AO2 T00911016
KLAM 211335Z AUTO 28005KT 10SM SCT050 BKN080 09/M01 A3001 RMK AO2 T00921011
KLAM 211315Z AUTO 26005KT 10SM OVC090 09/00 A2999 RMK AO2 T00931005
KLAM 211255Z AUTO 28005G08KT 10SM SCT050 OVC090 10/00 A2999 RMK AO2 T00981001
KLAM 211235Z AUTO 27005KT 10SM SCT048 BKN090 10/01 A2999 RMK AO2 T00970005